sensor_id;sensor_type;location;lat;lon;timestamp;P1;durP1;ratioP1;P2;durP2;ratioP2
16346;SDS011;8283;48.504;13.734;2023-05-10T00:01:01;2.40;;;1.77;;
16346;SDS011;8283;48.504;13.734;2023-05-10T00:03:47;3.92;;;1.90;;
16346;SDS011;8283;48.504;13.734;2023-05-10T00:06:31;3.50;;;1.67;;
16346;SDS011;8283;48.504;13.734;2023-05-10T00:09:16;2.83;;;2.17;;
16346;SDS011;8283;48.504;13.734;2023-05-10T00:12:01;2.47;;;2.05;;
16346;SDS011;8283;48.504;13.734;2023-05-10T00:14:46;3.33;;;2.00;;
16346;SDS011;8283;48.504;13.734;2023-05-10T00:17:30;5.03;;;1.92;;
16346;SDS011;8283;48.504;13.734;2023-05-10T00:20:15;2.08;;;1.80;;
16346;SDS011;8283;48.504;13.734;2023-05-10T00:22:59;3.15;;;2.17;;
16346;SDS011;8283;48.504;13.734;2023-05-10T00:25:44;2.63;;;1.90;;
16346;SDS011;8283;48.504;13.734;2023-05-10T00:28:28;2.30;;;1.85;;
16346;SDS011;8283;48.504;13.734;2023-05-10T00:31:14;2.53;;;1.98;;
16346;SDS011;8283;48.504;13.734;2023-05-10T00:33:58;2.00;;;1.80;;
16346;SDS011;8283;48.504;13.734;2023-05-10T00:36:43;2.72;;;2.22;;
16346;SDS011;8283;48.504;13.734;2023-05-10T00:39:27;2.60;;;2.40;;
16346;SDS011;8283;48.504;13.734;2023-05-10T00:42:12;4.18;;;2.45;;
16346;SDS011;8283;48.504;13.734;2023-05-10T00:44:57;3.10;;;2.10;;
16346;SDS011;8283;48.504;13.734;2023-05-10T00:47:41;2.75;;;2.40;;
16346;SDS011;8283;48.504;13.734;2023-05-10T00:50:26;2.17;;;1.98;;
16346;SDS011;8283;48.504;13.734;2023-05-10T00:53:11;2.58;;;2.15;;
16346;SDS011;8283;48.504;13.734;2023-05-10T00:55:57;3.28;;;1.65;;
16346;SDS011;8283;48.504;13.734;2023-05-10T00:58:43;3.75;;;2.05;;
16346;SDS011;8283;48.504;13.734;2023-05-10T01:01:29;2.20;;;1.80;;
16346;SDS011;8283;48.504;13.734;2023-05-10T01:04:14;2.33;;;1.90;;
16346;SDS011;8283;48.504;13.734;2023-05-10T01:06:59;4.28;;;2.25;;
16346;SDS011;8283;48.504;13.734;2023-05-10T01:09:44;2.67;;;1.70;;
16346;SDS011;8283;48.504;13.734;2023-05-10T01:12:29;3.05;;;2.47;;
16346;SDS011;8283;48.504;13.734;2023-05-10T01:15:14;2.30;;;2.10;;
16346;SDS011;8283;48.504;13.734;2023-05-10T01:18:00;3.10;;;2.20;;
16346;SDS011;8283;48.504;13.734;2023-05-10T01:20:45;2.65;;;1.92;;
16346;SDS011;8283;48.504;13.734;2023-05-10T01:23:38;2.67;;;2.10;;
16346;SDS011;8283;48.504;13.734;2023-05-10T01:30:04;3.60;;;1.70;;
16346;SDS011;8283;48.504;13.734;2023-05-10T01:42:08;4.38;;;1.88;;
16346;SDS011;8283;48.504;13.734;2023-05-10T01:47:58;3.00;;;2.03;;
16346;SDS011;8283;48.504;13.734;2023-05-10T01:50:53;2.13;;;1.92;;
16346;SDS011;8283;48.504;13.734;2023-05-10T01:53:38;2.50;;;2.10;;
16346;SDS011;8283;48.504;13.734;2023-05-10T01:56:24;2.47;;;1.83;;
16346;SDS011;8283;48.504;13.734;2023-05-10T01:59:12;4.80;;;2.67;;
16346;SDS011;8283;48.504;13.734;2023-05-10T02:02:00;2.00;;;1.80;;
16346;SDS011;8283;48.504;13.734;2023-05-10T02:04:46;1.98;;;1.77;;
16346;SDS011;8283;48.504;13.734;2023-05-10T02:07:38;2.42;;;2.22;;
16346;SDS011;8283;48.504;13.734;2023-05-10T02:10:24;2.10;;;1.90;;
16346;SDS011;8283;48.504;13.734;2023-05-10T02:13:10;2.15;;;1.85;;
16346;SDS011;8283;48.504;13.734;2023-05-10T02:15:57;2.00;;;1.80;;
16346;SDS011;8283;48.504;13.734;2023-05-10T02:18:44;2.17;;;1.95;;
16346;SDS011;8283;48.504;13.734;2023-05-10T02:21:29;2.75;;;2.28;;
16346;SDS011;8283;48.504;13.734;2023-05-10T02:24:16;3.92;;;2.60;;
16346;SDS011;8283;48.504;13.734;2023-05-10T02:27:02;2.67;;;2.13;;
16346;SDS011;8283;48.504;13.734;2023-05-10T02:29:48;3.35;;;2.30;;
16346;SDS011;8283;48.504;13.734;2023-05-10T02:32:34;2.92;;;2.45;;
16346;SDS011;8283;48.504;13.734;2023-05-10T02:35:20;3.45;;;1.73;;
16346;SDS011;8283;48.504;13.734;2023-05-10T02:38:06;5.25;;;2.45;;
16346;SDS011;8283;48.504;13.734;2023-05-10T02:40:53;3.45;;;2.60;;
16346;SDS011;8283;48.504;13.734;2023-05-10T02:43:40;2.60;;;2.28;;
16346;SDS011;8283;48.504;13.734;2023-05-10T02:46:25;2.00;;;1.80;;
16346;SDS011;8283;48.504;13.734;2023-05-10T02:49:10;3.13;;;2.13;;
16346;SDS011;8283;48.504;13.734;2023-05-10T02:51:56;2.53;;;2.15;;
16346;SDS011;8283;48.504;13.734;2023-05-10T02:54:50;1.98;;;1.67;;
16346;SDS011;8283;48.504;13.734;2023-05-10T02:57:40;2.60;;;2.38;;
16346;SDS011;8283;48.504;13.734;2023-05-10T03:00:40;5.53;;;2.45;;
16346;SDS011;8283;48.504;13.734;2023-05-10T03:03:25;2.35;;;2.13;;
16346;SDS011;8283;48.504;13.734;2023-05-10T03:06:10;2.63;;;2.35;;
16346;SDS011;8283;48.504;13.734;2023-05-10T03:08:55;3.05;;;2.17;;
16346;SDS011;8283;48.504;13.734;2023-05-10T03:17:41;2.80;;;2.40;;
16346;SDS011;8283;48.504;13.734;2023-05-10T03:20:42;2.55;;;2.30;;
16346;SDS011;8283;48.504;13.734;2023-05-10T03:23:48;3.80;;;2.10;;
16346;SDS011;8283;48.504;13.734;2023-05-10T03:26:35;2.58;;;2.28;;
16346;SDS011;8283;48.504;13.734;2023-05-10T03:29:29;2.08;;;1.70;;
16346;SDS011;8283;48.504;13.734;2023-05-10T03:32:15;2.50;;;2.30;;
16346;SDS011;8283;48.504;13.734;2023-05-10T03:34:59;3.47;;;2.30;;
16346;SDS011;8283;48.504;13.734;2023-05-10T03:37:46;4.93;;;2.58;;
16346;SDS011;8283;48.504;13.734;2023-05-10T03:40:32;5.60;;;2.35;;
16346;SDS011;8283;48.504;13.734;2023-05-10T03:43:18;2.70;;;2.33;;
16346;SDS011;8283;48.504;13.734;2023-05-10T03:46:03;2.42;;;2.08;;
16346;SDS011;8283;48.504;13.734;2023-05-10T03:48:48;3.33;;;2.53;;
16346;SDS011;8283;48.504;13.734;2023-05-10T03:51:32;2.33;;;2.05;;
16346;SDS011;8283;48.504;13.734;2023-05-10T03:54:17;2.80;;;2.50;;
16346;SDS011;8283;48.504;13.734;2023-05-10T03:57:02;2.25;;;2.05;;
16346;SDS011;8283;48.504;13.734;2023-05-10T03:59:47;2.47;;;2.28;;
16346;SDS011;8283;48.504;13.734;2023-05-10T04:02:32;2.50;;;2.30;;
16346;SDS011;8283;48.504;13.734;2023-05-10T04:05:17;4.07;;;2.50;;
16346;SDS011;8283;48.504;13.734;2023-05-10T04:08:05;2.47;;;2.22;;
16346;SDS011;8283;48.504;13.734;2023-05-10T04:10:51;4.80;;;2.20;;
16346;SDS011;8283;48.504;13.734;2023-05-10T04:13:39;2.63;;;2.42;;
16346;SDS011;8283;48.504;13.734;2023-05-10T04:16:25;4.18;;;2.35;;
16346;SDS011;8283;48.504;13.734;2023-05-10T04:19:10;2.15;;;1.95;;
16346;SDS011;8283;48.504;13.734;2023-05-10T04:21:55;2.80;;;2.55;;
16346;SDS011;8283;48.504;13.734;2023-05-10T04:24:39;3.08;;;2.45;;
16346;SDS011;8283;48.504;13.734;2023-05-10T04:27:26;2.72;;;2.50;;
16346;SDS011;8283;48.504;13.734;2023-05-10T04:30:11;2.88;;;2.53;;
16346;SDS011;8283;48.504;13.734;2023-05-10T04:32:55;3.05;;;2.47;;
16346;SDS011;8283;48.504;13.734;2023-05-10T04:35:43;2.38;;;2.17;;
16346;SDS011;8283;48.504;13.734;2023-05-10T04:38:28;4.20;;;2.00;;
16346;SDS011;8283;48.504;13.734;2023-05-10T04:41:14;2.90;;;2.60;;
16346;SDS011;8283;48.504;13.734;2023-05-10T04:43:58;3.20;;;2.47;;
16346;SDS011;8283;48.504;13.734;2023-05-10T04:46:42;2.58;;;2.15;;
16346;SDS011;8283;48.504;13.734;2023-05-10T04:49:27;3.65;;;2.35;;
16346;SDS011;8283;48.504;13.734;2023-05-10T04:52:13;3.42;;;2.75;;
16346;SDS011;8283;48.504;13.734;2023-05-10T04:54:59;2.75;;;2.20;;
16346;SDS011;8283;48.504;13.734;2023-05-10T04:57:44;3.58;;;2.25;;
16346;SDS011;8283;48.504;13.734;2023-05-10T05:00:29;3.40;;;2.35;;
16346;SDS011;8283;48.504;13.734;2023-05-10T05:03:14;2.95;;;2.22;;
16346;SDS011;8283;48.504;13.734;2023-05-10T05:06:00;2.47;;;2.28;;
16346;SDS011;8283;48.504;13.734;2023-05-10T05:08:46;2.85;;;2.08;;
16346;SDS011;8283;48.504;13.734;2023-05-10T05:11:33;2.67;;;2.10;;
16346;SDS011;8283;48.504;13.734;2023-05-10T05:14:17;2.63;;;2.40;;
16346;SDS011;8283;48.504;13.734;2023-05-10T05:17:05;3.85;;;2.25;;
16346;SDS011;8283;48.504;13.734;2023-05-10T05:19:51;2.17;;;1.98;;
16346;SDS011;8283;48.504;13.734;2023-05-10T05:22:37;3.70;;;2.60;;
16346;SDS011;8283;48.504;13.734;2023-05-10T05:25:22;4.03;;;2.40;;
16346;SDS011;8283;48.504;13.734;2023-05-10T05:28:07;2.60;;;2.10;;
16346;SDS011;8283;48.504;13.734;2023-05-10T05:30:52;2.17;;;1.98;;
16346;SDS011;8283;48.504;13.734;2023-05-10T05:33:36;2.28;;;2.08;;
16346;SDS011;8283;48.504;13.734;2023-05-10T05:36:22;2.53;;;2.10;;
16346;SDS011;8283;48.504;13.734;2023-05-10T05:39:08;2.53;;;2.25;;
16346;SDS011;8283;48.504;13.734;2023-05-10T05:41:52;2.53;;;1.88;;
16346;SDS011;8283;48.504;13.734;2023-05-10T05:44:36;2.40;;;2.20;;
16346;SDS011;8283;48.504;13.734;2023-05-10T05:47:21;2.53;;;2.33;;
16346;SDS011;8283;48.504;13.734;2023-05-10T05:50:06;2.20;;;1.98;;
16346;SDS011;8283;48.504;13.734;2023-05-10T05:52:52;4.88;;;2.22;;
16346;SDS011;8283;48.504;13.734;2023-05-10T05:55:37;2.17;;;1.98;;
16346;SDS011;8283;48.504;13.734;2023-05-10T05:58:22;2.88;;;2.60;;
16346;SDS011;8283;48.504;13.734;2023-05-10T06:01:06;3.88;;;2.50;;
16346;SDS011;8283;48.504;13.734;2023-05-10T06:03:51;2.30;;;2.10;;
16346;SDS011;8283;48.504;13.734;2023-05-10T06:06:35;2.55;;;2.28;;
16346;SDS011;8283;48.504;13.734;2023-05-10T06:09:20;2.92;;;2.60;;
16346;SDS011;8283;48.504;13.734;2023-05-10T06:12:04;5.30;;;2.22;;
16346;SDS011;8283;48.504;13.734;2023-05-10T06:14:49;2.63;;;2.13;;
16346;SDS011;8283;48.504;13.734;2023-05-10T06:17:38;2.72;;;2.38;;
16346;SDS011;8283;48.504;13.734;2023-05-10T06:20:23;2.70;;;2.47;;
16346;SDS011;8283;48.504;13.734;2023-05-10T06:23:08;6.03;;;2.78;;
16346;SDS011;8283;48.504;13.734;2023-05-10T06:25:55;3.63;;;2.20;;
16346;SDS011;8283;48.504;13.734;2023-05-10T06:28:39;3.00;;;2.45;;
16346;SDS011;8283;48.504;13.734;2023-05-10T06:31:23;2.30;;;2.10;;
16346;SDS011;8283;48.504;13.734;2023-05-10T06:34:08;2.50;;;2.30;;
16346;SDS011;8283;48.504;13.734;2023-05-10T06:36:53;2.63;;;1.98;;
16346;SDS011;8283;48.504;13.734;2023-05-10T06:39:38;3.22;;;2.50;;
16346;SDS011;8283;48.504;13.734;2023-05-10T06:42:23;2.88;;;2.53;;
16346;SDS011;8283;48.504;13.734;2023-05-10T06:45:09;2.33;;;2.08;;
16346;SDS011;8283;48.504;13.734;2023-05-10T06:47:54;2.75;;;2.42;;
16346;SDS011;8283;48.504;13.734;2023-05-10T06:50:39;2.47;;;2.10;;
16346;SDS011;8283;48.504;13.734;2023-05-10T06:53:24;2.53;;;2.00;;
16346;SDS011;8283;48.504;13.734;2023-05-10T06:56:09;2.60;;;2.25;;
16346;SDS011;8283;48.504;13.734;2023-05-10T06:58:54;3.13;;;2.25;;
16346;SDS011;8283;48.504;13.734;2023-05-10T07:01:38;2.45;;;1.90;;
16346;SDS011;8283;48.504;13.734;2023-05-10T07:04:22;1.92;;;1.80;;
16346;SDS011;8283;48.504;13.734;2023-05-10T07:07:07;2.78;;;2.50;;
16346;SDS011;8283;48.504;13.734;2023-05-10T07:09:52;4.18;;;2.53;;
16346;SDS011;8283;48.504;13.734;2023-05-10T07:12:39;2.40;;;2.20;;
16346;SDS011;8283;48.504;13.734;2023-05-10T07:15:24;2.72;;;2.28;;
16346;SDS011;8283;48.504;13.734;2023-05-10T07:18:08;3.33;;;2.33;;
16346;SDS011;8283;48.504;13.734;2023-05-10T07:20:56;3.53;;;2.28;;
16346;SDS011;8283;48.504;13.734;2023-05-10T07:23:41;2.78;;;2.33;;
16346;SDS011;8283;48.504;13.734;2023-05-10T07:26:36;2.65;;;2.35;;
16346;SDS011;8283;48.504;13.734;2023-05-10T07:29:22;3.78;;;2.30;;
16346;SDS011;8283;48.504;13.734;2023-05-10T07:32:06;2.60;;;2.40;;
16346;SDS011;8283;48.504;13.734;2023-05-10T07:34:52;2.80;;;2.47;;
16346;SDS011;8283;48.504;13.734;2023-05-10T07:37:36;2.60;;;2.17;;
16346;SDS011;8283;48.504;13.734;2023-05-10T07:40:20;2.65;;;2.13;;
16346;SDS011;8283;48.504;13.734;2023-05-10T07:43:05;2.65;;;2.25;;
16346;SDS011;8283;48.504;13.734;2023-05-10T07:45:52;2.35;;;2.13;;
16346;SDS011;8283;48.504;13.734;2023-05-10T07:48:38;4.75;;;2.47;;
16346;SDS011;8283;48.504;13.734;2023-05-10T07:51:22;2.83;;;2.53;;
16346;SDS011;8283;48.504;13.734;2023-05-10T07:54:08;3.17;;;2.08;;
16346;SDS011;8283;48.504;13.734;2023-05-10T07:56:52;3.17;;;2.50;;
16346;SDS011;8283;48.504;13.734;2023-05-10T07:59:39;4.35;;;2.28;;
16346;SDS011;8283;48.504;13.734;2023-05-10T08:02:25;2.90;;;2.60;;
16346;SDS011;8283;48.504;13.734;2023-05-10T08:05:09;3.17;;;2.88;;
16346;SDS011;8283;48.504;13.734;2023-05-10T08:07:55;2.63;;;2.38;;
16346;SDS011;8283;48.504;13.734;2023-05-10T08:10:39;3.47;;;2.55;;
16346;SDS011;8283;48.504;13.734;2023-05-10T08:13:24;3.13;;;2.60;;
16346;SDS011;8283;48.504;13.734;2023-05-10T08:16:08;3.28;;;2.58;;
16346;SDS011;8283;48.504;13.734;2023-05-10T08:18:53;2.80;;;2.53;;
16346;SDS011;8283;48.504;13.734;2023-05-10T08:21:39;2.72;;;2.50;;
16346;SDS011;8283;48.504;13.734;2023-05-10T08:24:25;3.30;;;2.83;;
16346;SDS011;8283;48.504;13.734;2023-05-10T08:27:10;3.28;;;2.50;;
16346;SDS011;8283;48.504;13.734;2023-05-10T08:29:55;2.60;;;2.13;;
16346;SDS011;8283;48.504;13.734;2023-05-10T08:32:40;3.35;;;2.55;;
16346;SDS011;8283;48.504;13.734;2023-05-10T08:35:24;4.88;;;2.55;;
16346;SDS011;8283;48.504;13.734;2023-05-10T08:38:09;10.20;;;9.20;;
16346;SDS011;8283;48.504;13.734;2023-05-10T08:40:55;4.22;;;3.60;;
16346;SDS011;8283;48.504;13.734;2023-05-10T08:43:42;2.97;;;2.75;;
16346;SDS011;8283;48.504;13.734;2023-05-10T08:46:31;3.33;;;3.03;;
16346;SDS011;8283;48.504;13.734;2023-05-10T08:49:23;3.50;;;2.72;;
16346;SDS011;8283;48.504;13.734;2023-05-10T08:52:13;3.90;;;2.92;;
16346;SDS011;8283;48.504;13.734;2023-05-10T08:55:00;3.50;;;2.70;;
16346;SDS011;8283;48.504;13.734;2023-05-10T08:57:46;3.15;;;2.85;;
16346;SDS011;8283;48.504;13.734;2023-05-10T09:00:31;4.28;;;2.92;;
16346;SDS011;8283;48.504;13.734;2023-05-10T09:03:18;4.18;;;2.90;;
16346;SDS011;8283;48.504;13.734;2023-05-10T09:06:03;3.40;;;2.78;;
16346;SDS011;8283;48.504;13.734;2023-05-10T09:08:48;2.85;;;2.55;;
16346;SDS011;8283;48.504;13.734;2023-05-10T09:11:37;3.40;;;2.67;;
16346;SDS011;8283;48.504;13.734;2023-05-10T09:14:23;8.88;;;4.15;;
16346;SDS011;8283;48.504;13.734;2023-05-10T09:17:12;5.95;;;3.13;;
16346;SDS011;8283;48.504;13.734;2023-05-10T09:19:59;3.15;;;2.85;;
16346;SDS011;8283;48.504;13.734;2023-05-10T09:22:44;4.35;;;3.00;;
16346;SDS011;8283;48.504;13.734;2023-05-10T09:25:33;2.90;;;2.60;;
16346;SDS011;8283;48.504;13.734;2023-05-10T09:28:17;7.20;;;3.30;;
16346;SDS011;8283;48.504;13.734;2023-05-10T09:31:03;4.93;;;2.95;;
16346;SDS011;8283;48.504;13.734;2023-05-10T09:33:49;5.38;;;3.20;;
16346;SDS011;8283;48.504;13.734;2023-05-10T09:36:35;3.53;;;2.75;;
16346;SDS011;8283;48.504;13.734;2023-05-10T09:39:20;3.88;;;3.35;;
16346;SDS011;8283;48.504;13.734;2023-05-10T09:42:07;4.38;;;3.00;;
16346;SDS011;8283;48.504;13.734;2023-05-10T09:44:52;4.05;;;3.10;;
16346;SDS011;8283;48.504;13.734;2023-05-10T09:47:38;3.30;;;3.00;;
16346;SDS011;8283;48.504;13.734;2023-05-10T09:50:23;3.35;;;3.05;;
16346;SDS011;8283;48.504;13.734;2023-05-10T09:53:08;3.38;;;2.92;;
16346;SDS011;8283;48.504;13.734;2023-05-10T09:55:53;3.63;;;3.05;;
16346;SDS011;8283;48.504;13.734;2023-05-10T09:58:38;5.45;;;3.40;;
16346;SDS011;8283;48.504;13.734;2023-05-10T10:01:25;3.28;;;2.97;;
16346;SDS011;8283;48.504;13.734;2023-05-10T10:04:10;4.75;;;3.75;;
16346;SDS011;8283;48.504;13.734;2023-05-10T10:07:02;3.58;;;3.15;;
16346;SDS011;8283;48.504;13.734;2023-05-10T10:09:49;3.65;;;3.30;;
16346;SDS011;8283;48.504;13.734;2023-05-10T10:12:34;3.60;;;3.25;;
16346;SDS011;8283;48.504;13.734;2023-05-10T10:15:19;4.75;;;3.65;;
16346;SDS011;8283;48.504;13.734;2023-05-10T10:18:05;4.57;;;3.70;;
16346;SDS011;8283;48.504;13.734;2023-05-10T10:20:50;4.43;;;4.03;;
16346;SDS011;8283;48.504;13.734;2023-05-10T10:23:34;4.25;;;3.50;;
16346;SDS011;8283;48.504;13.734;2023-05-10T10:26:20;3.95;;;3.53;;
16346;SDS011;8283;48.504;13.734;2023-05-10T10:29:16;4.30;;;3.58;;
16346;SDS011;8283;48.504;13.734;2023-05-10T10:32:10;4.32;;;3.70;;
16346;SDS011;8283;48.504;13.734;2023-05-10T10:35:10;3.80;;;3.50;;
16346;SDS011;8283;48.504;13.734;2023-05-10T10:37:56;4.35;;;3.95;;
16346;SDS011;8283;48.504;13.734;2023-05-10T10:40:40;4.20;;;3.80;;
16346;SDS011;8283;48.504;13.734;2023-05-10T10:43:25;3.80;;;3.45;;
16346;SDS011;8283;48.504;13.734;2023-05-10T10:46:12;4.80;;;3.67;;
16346;SDS011;8283;48.504;13.734;2023-05-10T10:49:10;4.75;;;3.88;;
16346;SDS011;8283;48.504;13.734;2023-05-10T10:55:17;6.10;;;3.53;;
16346;SDS011;8283;48.504;13.734;2023-05-10T10:58:03;3.90;;;3.55;;
16346;SDS011;8283;48.504;13.734;2023-05-10T11:00:48;4.47;;;4.07;;
16346;SDS011;8283;48.504;13.734;2023-05-10T11:03:32;5.45;;;4.40;;
16346;SDS011;8283;48.504;13.734;2023-05-10T11:06:17;8.25;;;4.45;;
16346;SDS011;8283;48.504;13.734;2023-05-10T11:09:15;5.75;;;4.15;;
16346;SDS011;8283;48.504;13.734;2023-05-10T11:12:00;5.75;;;3.80;;
16346;SDS011;8283;48.504;13.734;2023-05-10T11:14:52;4.20;;;3.80;;
16346;SDS011;8283;48.504;13.734;2023-05-10T11:17:41;5.32;;;4.55;;
16346;SDS011;8283;48.504;13.734;2023-05-10T11:20:38;6.10;;;4.90;;
16346;SDS011;8283;48.504;13.734;2023-05-10T11:23:23;8.02;;;6.40;;
16346;SDS011;8283;48.504;13.734;2023-05-10T11:29:02;7.32;;;4.80;;
16346;SDS011;8283;48.504;13.734;2023-05-10T11:31:49;6.20;;;5.28;;
16346;SDS011;8283;48.504;13.734;2023-05-10T11:34:34;9.00;;;6.82;;
16346;SDS011;8283;48.504;13.734;2023-05-10T11:37:18;6.05;;;5.43;;
16346;SDS011;8283;48.504;13.734;2023-05-10T11:40:03;6.20;;;5.35;;
16346;SDS011;8283;48.504;13.734;2023-05-10T11:42:47;7.03;;;5.75;;
16346;SDS011;8283;48.504;13.734;2023-05-10T11:45:32;7.55;;;5.63;;
16346;SDS011;8283;48.504;13.734;2023-05-10T11:48:20;6.78;;;4.70;;
16346;SDS011;8283;48.504;13.734;2023-05-10T11:51:07;6.70;;;5.73;;
16346;SDS011;8283;48.504;13.734;2023-05-10T11:53:54;7.10;;;6.03;;
16346;SDS011;8283;48.504;13.734;2023-05-10T11:56:40;6.40;;;5.75;;
16346;SDS011;8283;48.504;13.734;2023-05-10T11:59:25;7.82;;;6.13;;
16346;SDS011;8283;48.504;13.734;2023-05-10T12:02:10;7.45;;;5.90;;
16346;SDS011;8283;48.504;13.734;2023-05-10T12:04:55;6.25;;;5.65;;
16346;SDS011;8283;48.504;13.734;2023-05-10T12:07:40;8.90;;;6.60;;
16346;SDS011;8283;48.504;13.734;2023-05-10T12:10:25;6.32;;;5.70;;
16346;SDS011;8283;48.504;13.734;2023-05-10T12:13:11;7.63;;;5.93;;
16346;SDS011;8283;48.504;13.734;2023-05-10T12:15:58;7.70;;;6.22;;
16346;SDS011;8283;48.504;13.734;2023-05-10T12:18:44;6.72;;;6.13;;
16346;SDS011;8283;48.504;13.734;2023-05-10T12:21:29;6.93;;;6.22;;
16346;SDS011;8283;48.504;13.734;2023-05-10T12:24:16;6.50;;;5.72;;
16346;SDS011;8283;48.504;13.734;2023-05-10T12:27:04;6.50;;;5.88;;
16346;SDS011;8283;48.504;13.734;2023-05-10T12:29:53;8.77;;;7.88;;
16346;SDS011;8283;48.504;13.734;2023-05-10T12:32:39;8.52;;;7.63;;
16346;SDS011;8283;48.504;13.734;2023-05-10T12:35:30;7.47;;;6.78;;
16346;SDS011;8283;48.504;13.734;2023-05-10T12:38:28;9.85;;;6.80;;
16346;SDS011;8283;48.504;13.734;2023-05-10T12:41:18;7.78;;;6.88;;
16346;SDS011;8283;48.504;13.734;2023-05-10T12:44:02;6.80;;;6.20;;
16346;SDS011;8283;48.504;13.734;2023-05-10T12:46:50;7.75;;;6.68;;
16346;SDS011;8283;48.504;13.734;2023-05-10T12:49:34;7.28;;;6.53;;
16346;SDS011;8283;48.504;13.734;2023-05-10T12:52:19;7.80;;;6.95;;
16346;SDS011;8283;48.504;13.734;2023-05-10T12:55:04;7.72;;;6.93;;
16346;SDS011;8283;48.504;13.734;2023-05-10T12:57:49;6.68;;;6.07;;
16346;SDS011;8283;48.504;13.734;2023-05-10T13:00:34;5.88;;;5.28;;
16346;SDS011;8283;48.504;13.734;2023-05-10T13:03:19;7.03;;;6.10;;
16346;SDS011;8283;48.504;13.734;2023-05-10T13:06:04;6.45;;;5.28;;
16346;SDS011;8283;48.504;13.734;2023-05-10T13:08:50;5.35;;;4.85;;
16346;SDS011;8283;48.504;13.734;2023-05-10T13:11:35;5.90;;;5.30;;
16346;SDS011;8283;48.504;13.734;2023-05-10T13:14:20;6.97;;;4.72;;
16346;SDS011;8283;48.504;13.734;2023-05-10T13:17:05;5.28;;;4.00;;
16346;SDS011;8283;48.504;13.734;2023-05-10T13:19:50;4.25;;;3.88;;
16346;SDS011;8283;48.504;13.734;2023-05-10T13:22:36;5.88;;;4.75;;
16346;SDS011;8283;48.504;13.734;2023-05-10T13:25:20;6.53;;;4.32;;
16346;SDS011;8283;48.504;13.734;2023-05-10T13:28:04;5.20;;;4.70;;
16346;SDS011;8283;48.504;13.734;2023-05-10T13:30:49;4.80;;;4.35;;
16346;SDS011;8283;48.504;13.734;2023-05-10T13:33:33;3.88;;;3.58;;
16346;SDS011;8283;48.504;13.734;2023-05-10T13:36:19;4.88;;;4.35;;
16346;SDS011;8283;48.504;13.734;2023-05-10T13:39:04;4.60;;;3.95;;
16346;SDS011;8283;48.504;13.734;2023-05-10T13:41:49;4.97;;;4.47;;
16346;SDS011;8283;48.504;13.734;2023-05-10T13:44:33;5.68;;;4.97;;
16346;SDS011;8283;48.504;13.734;2023-05-10T13:47:19;4.55;;;4.15;;
16346;SDS011;8283;48.504;13.734;2023-05-10T13:50:05;5.07;;;3.83;;
16346;SDS011;8283;48.504;13.734;2023-05-10T13:52:51;5.43;;;4.10;;
16346;SDS011;8283;48.504;13.734;2023-05-10T13:55:36;4.45;;;4.05;;
16346;SDS011;8283;48.504;13.734;2023-05-10T13:58:21;5.20;;;3.97;;
16346;SDS011;8283;48.504;13.734;2023-05-10T14:01:05;4.38;;;3.97;;
16346;SDS011;8283;48.504;13.734;2023-05-10T14:03:50;4.88;;;4.38;;
16346;SDS011;8283;48.504;13.734;2023-05-10T14:06:36;4.65;;;4.22;;
16346;SDS011;8283;48.504;13.734;2023-05-10T14:09:20;3.75;;;3.45;;
16346;SDS011;8283;48.504;13.734;2023-05-10T14:12:05;3.85;;;3.50;;
16346;SDS011;8283;48.504;13.734;2023-05-10T14:14:49;3.67;;;3.38;;
16346;SDS011;8283;48.504;13.734;2023-05-10T14:17:34;3.72;;;3.40;;
16346;SDS011;8283;48.504;13.734;2023-05-10T14:20:19;4.15;;;3.75;;
16346;SDS011;8283;48.504;13.734;2023-05-10T14:23:05;3.58;;;3.28;;
16346;SDS011;8283;48.504;13.734;2023-05-10T14:25:51;3.85;;;3.50;;
16346;SDS011;8283;48.504;13.734;2023-05-10T14:28:38;3.72;;;3.42;;
16346;SDS011;8283;48.504;13.734;2023-05-10T14:31:23;4.70;;;3.60;;
16346;SDS011;8283;48.504;13.734;2023-05-10T14:34:10;4.45;;;3.47;;
16346;SDS011;8283;48.504;13.734;2023-05-10T14:36:55;4.07;;;3.67;;
16346;SDS011;8283;48.504;13.734;2023-05-10T14:39:41;4.72;;;3.58;;
16346;SDS011;8283;48.504;13.734;2023-05-10T14:42:28;3.67;;;3.35;;
16346;SDS011;8283;48.504;13.734;2023-05-10T14:45:13;5.85;;;4.60;;
16346;SDS011;8283;48.504;13.734;2023-05-10T14:47:58;3.83;;;3.40;;
16346;SDS011;8283;48.504;13.734;2023-05-10T14:50:43;4.30;;;3.90;;
16346;SDS011;8283;48.504;13.734;2023-05-10T14:53:30;5.40;;;4.43;;
16346;SDS011;8283;48.504;13.734;2023-05-10T14:59:04;5.30;;;4.45;;
16346;SDS011;8283;48.504;13.734;2023-05-10T15:04:47;4.07;;;3.58;;
16346;SDS011;8283;48.504;13.734;2023-05-10T15:07:32;5.10;;;4.28;;
16346;SDS011;8283;48.504;13.734;2023-05-10T15:10:18;5.00;;;4.18;;
16346;SDS011;8283;48.504;13.734;2023-05-10T15:13:03;5.57;;;4.30;;
16346;SDS011;8283;48.504;13.734;2023-05-10T15:15:50;4.32;;;3.90;;
16346;SDS011;8283;48.504;13.734;2023-05-10T15:18:36;4.75;;;4.18;;
16346;SDS011;8283;48.504;13.734;2023-05-10T15:21:21;5.25;;;4.68;;
16346;SDS011;8283;48.504;13.734;2023-05-10T15:24:05;4.82;;;4.18;;
16346;SDS011;8283;48.504;13.734;2023-05-10T15:26:50;5.57;;;4.15;;
16346;SDS011;8283;48.504;13.734;2023-05-10T15:29:34;4.13;;;3.72;;
16346;SDS011;8283;48.504;13.734;2023-05-10T15:32:19;4.57;;;3.85;;
16346;SDS011;8283;48.504;13.734;2023-05-10T15:35:11;4.55;;;4.15;;
16346;SDS011;8283;48.504;13.734;2023-05-10T15:38:01;5.03;;;4.53;;
16346;SDS011;8283;48.504;13.734;2023-05-10T15:40:48;5.88;;;3.75;;
16346;SDS011;8283;48.504;13.734;2023-05-10T15:43:33;4.72;;;4.32;;
16346;SDS011;8283;48.504;13.734;2023-05-10T15:46:18;5.20;;;4.70;;
16346;SDS011;8283;48.504;13.734;2023-05-10T15:49:03;5.78;;;4.43;;
16346;SDS011;8283;48.504;13.734;2023-05-10T15:51:52;5.13;;;4.45;;
16346;SDS011;8283;48.504;13.734;2023-05-10T15:54:38;5.65;;;4.35;;
16346;SDS011;8283;48.504;13.734;2023-05-10T15:57:25;5.85;;;3.90;;
16346;SDS011;8283;48.504;13.734;2023-05-10T16:00:10;6.50;;;4.60;;
16346;SDS011;8283;48.504;13.734;2023-05-10T16:03:00;4.28;;;3.88;;
16346;SDS011;8283;48.504;13.734;2023-05-10T16:05:45;4.78;;;3.80;;
16346;SDS011;8283;48.504;13.734;2023-05-10T16:08:29;4.38;;;3.97;;
16346;SDS011;8283;48.504;13.734;2023-05-10T16:11:16;3.90;;;3.45;;
16346;SDS011;8283;48.504;13.734;2023-05-10T16:14:00;4.90;;;3.78;;
16346;SDS011;8283;48.504;13.734;2023-05-10T16:16:44;4.75;;;3.80;;
16346;SDS011;8283;48.504;13.734;2023-05-10T16:19:29;4.28;;;3.53;;
16346;SDS011;8283;48.504;13.734;2023-05-10T16:22:16;4.40;;;3.90;;
16346;SDS011;8283;48.504;13.734;2023-05-10T16:27:51;4.00;;;3.60;;
16346;SDS011;8283;48.504;13.734;2023-05-10T16:30:35;4.13;;;3.72;;
16346;SDS011;8283;48.504;13.734;2023-05-10T16:33:20;4.60;;;3.85;;
16346;SDS011;8283;48.504;13.734;2023-05-10T16:36:04;5.32;;;4.00;;
16346;SDS011;8283;48.504;13.734;2023-05-10T16:38:49;4.95;;;3.85;;
16346;SDS011;8283;48.504;13.734;2023-05-10T16:41:34;4.53;;;4.13;;
16346;SDS011;8283;48.504;13.734;2023-05-10T16:44:18;5.07;;;4.10;;
16346;SDS011;8283;48.504;13.734;2023-05-10T16:47:03;5.10;;;4.43;;
16346;SDS011;8283;48.504;13.734;2023-05-10T16:49:48;4.57;;;3.53;;
16346;SDS011;8283;48.504;13.734;2023-05-10T16:52:33;3.90;;;3.47;;
16346;SDS011;8283;48.504;13.734;2023-05-10T16:55:19;4.07;;;3.63;;
16346;SDS011;8283;48.504;13.734;2023-05-10T16:58:05;3.72;;;3.15;;
16346;SDS011;8283;48.504;13.734;2023-05-10T17:00:53;4.53;;;3.20;;
16346;SDS011;8283;48.504;13.734;2023-05-10T17:03:38;4.38;;;3.35;;
16346;SDS011;8283;48.504;13.734;2023-05-10T17:06:22;4.65;;;4.15;;
16346;SDS011;8283;48.504;13.734;2023-05-10T17:09:06;4.72;;;4.22;;
16346;SDS011;8283;48.504;13.734;2023-05-10T17:11:51;5.63;;;4.85;;
16346;SDS011;8283;48.504;13.734;2023-05-10T17:14:35;5.13;;;3.83;;
16346;SDS011;8283;48.504;13.734;2023-05-10T17:17:21;4.10;;;3.70;;